Urucuia, Brazil
Current Conditions -  °F | °C
As of 11:00 AM on Friday 31 Oct 2014 (Local Time) from SBMK Reporting Station
Scattered Clouds Scattered Clouds  
Wind Chill: 81°   Ceiling: Unl
Heat Index: 81°   Visibility: 6mi
Dew Point: 61°   Wind: 7mph
Humidity: 51%   Direction: 40°NE
Pressure: 30.06"   Gusts: NA
Location:  16.13°S, 45.74°W
Report Text: SBMK 311300Z 04006KT 330V090 9999 SCT030 27/16 Q1018
Loading
Personal Weather Stations






























Interactive Weather Map
Tropical Storm Tracking
New forecast layout! Learn more

10-Day Weather Forecast

Advertisements
Track Severe Weather on mobile